createdAt,value
2019-01-12T00:00:55.799Z,102434.84
2019-01-12T00:03:24.984Z,102438.43
2019-01-12T00:06:01.429Z,102436.65
2019-01-12T00:08:30.625Z,102438.43
2019-01-12T00:10:59.836Z,102438.84
2019-01-12T00:13:29.001Z,102436.16
2019-01-12T00:15:58.195Z,102425.02
2019-01-12T00:18:29.911Z,102423.70
2019-01-12T00:20:58.259Z,102430.34
2019-01-12T00:23:27.460Z,102421.91
2019-01-12T00:25:56.631Z,102430.83
2019-01-12T00:28:25.806Z,102420.56
2019-01-12T00:30:55.012Z,102416.55
2019-01-12T00:33:24.180Z,102421.84
2019-01-12T00:35:53.354Z,102420.92
2019-01-12T00:38:22.549Z,102407.06
2019-01-12T00:40:51.720Z,102407.06
2019-01-12T00:43:20.909Z,102407.53
2019-01-12T00:45:50.193Z,102407.92
2019-01-12T00:48:37.200Z,102400.88
2019-01-12T00:51:06.604Z,102395.59
2019-01-12T00:53:35.763Z,102393.39
2019-01-12T00:56:05.004Z,102392.92
2019-01-12T00:58:34.202Z,102392.45
2019-01-12T01:01:03.398Z,102385.34
2019-01-12T01:03:32.550Z,102386.61
2019-01-12T01:06:01.763Z,102388.80
2019-01-12T01:08:30.940Z,102382.56
2019-01-12T01:11:00.112Z,102380.34
2019-01-12T01:13:29.304Z,102388.78
2019-01-12T01:15:58.469Z,102378.94
2019-01-12T01:18:27.656Z,102377.64
2019-01-12T01:20:56.855Z,102376.77
2019-01-12T01:23:26.031Z,102378.94
2019-01-12T01:25:55.792Z,102379.81
2019-01-12T01:28:25.000Z,102373.16
2019-01-12T01:30:54.172Z,102370.00
2019-01-12T01:33:27.966Z,102367.80
2019-01-12T01:35:54.391Z,102361.16
2019-01-12T01:38:23.571Z,102365.13
2019-01-12T01:40:52.758Z,102359.34
2019-01-12T01:43:21.970Z,102362.94
2019-01-12T01:45:51.159Z,102358.91
2019-01-12T01:48:20.380Z,102364.68
2019-01-12T01:50:49.542Z,102354.95
2019-01-12T01:53:18.711Z,102356.75
2019-01-12T01:55:47.878Z,102358.49
2019-01-12T01:58:17.090Z,102350.51
2019-01-12T02:00:46.273Z,102352.76
2019-01-12T02:03:15.451Z,102347.89
2019-01-12T02:05:44.663Z,102342.50
2019-01-12T02:08:13.854Z,102335.45
2019-01-12T02:10:43.041Z,102332.77
2019-01-12T02:13:12.309Z,102329.23
2019-01-12T02:15:41.484Z,102319.45
2019-01-12T02:18:10.708Z,102308.37
2019-01-12T02:20:39.918Z,102307.91
2019-01-12T02:23:09.113Z,102304.33
2019-01-12T02:25:38.294Z,102302.56
2019-01-12T02:28:07.495Z,102289.22
2019-01-12T02:30:36.693Z,102300.77
2019-01-12T02:33:05.893Z,102293.66
2019-01-12T02:35:35.098Z,102289.25
2019-01-12T02:38:04.280Z,102285.25
2019-01-12T02:40:34.689Z,102280.87
2019-01-12T02:43:03.945Z,102275.53
2019-01-12T02:45:33.155Z,102271.53
2019-01-12T02:48:02.354Z,102271.08
2019-01-12T02:50:31.524Z,102260.87
2019-01-12T02:53:00.724Z,102270.61
2019-01-12T02:55:29.930Z,102267.04
2019-01-12T02:58:00.129Z,102262.58
2019-01-12T03:00:29.457Z,102260.32
2019-01-12T03:02:58.636Z,102262.95
2019-01-12T03:05:27.894Z,102259.43
2019-01-12T03:07:57.084Z,102253.66
2019-01-12T03:10:26.253Z,102256.77
2019-01-12T03:12:55.628Z,102261.66
2019-01-12T03:15:24.828Z,102259.05
2019-01-12T03:17:54.028Z,102262.58
2019-01-12T03:20:23.210Z,102249.76
2019-01-12T03:22:52.394Z,102257.34
2019-01-12T03:25:21.586Z,102250.68
2019-01-12T03:27:50.780Z,102250.68
2019-01-12T03:30:20.061Z,102241.80
2019-01-12T03:32:49.524Z,102244.02
2019-01-12T03:35:18.734Z,102250.27
2019-01-12T03:37:48.002Z,102238.26
2019-01-12T03:40:17.803Z,102240.94
2019-01-12T03:42:47.044Z,102236.09
2019-01-12T03:45:17.292Z,102235.69
2019-01-12T03:47:46.448Z,102229.91
2019-01-12T03:50:16.962Z,102225.05
2019-01-12T03:52:46.180Z,102219.23
2019-01-12T03:55:15.439Z,102210.75
2019-01-12T03:57:44.575Z,102208.53
2019-01-12T04:00:16.784Z,102209.87
2019-01-12T04:02:45.958Z,102199.20
2019-01-12T04:05:15.183Z,102206.72
2019-01-12T04:07:44.367Z,102200.02
2019-01-12T04:10:14.208Z,102202.69
2019-01-12T04:12:43.360Z,102203.07
2019-01-12T04:15:13.668Z,102203.05
2019-01-12T04:17:43.012Z,102191.46
2019-01-12T04:20:14.634Z,102195.03
2019-01-12T04:22:43.815Z,102194.09
2019-01-12T04:25:13.444Z,102188.30
2019-01-12T04:27:44.323Z,102183.41
2019-01-12T04:30:15.883Z,102176.37
2019-01-12T04:32:45.077Z,102169.70
2019-01-12T04:35:14.305Z,102166.59
2019-01-12T04:37:43.542Z,102157.64
2019-01-12T04:40:15.477Z,102159.44
2019-01-12T04:42:44.743Z,102151.91
2019-01-12T04:45:14.393Z,102152.38
2019-01-12T04:47:43.571Z,102145.23
2019-01-12T04:50:14.888Z,102144.31
2019-01-12T04:52:44.111Z,102136.31
2019-01-12T04:55:14.304Z,102131.42
2019-01-12T04:57:43.462Z,102126.08
2019-01-12T05:00:15.293Z,102123.46
2019-01-12T05:02:44.551Z,102117.64
2019-01-12T05:05:13.864Z,102112.73
2019-01-12T05:07:43.039Z,102114.95
2019-01-12T05:10:13.468Z,102114.45
2019-01-12T05:12:42.638Z,102104.68
2019-01-12T05:15:13.943Z,102108.27
2019-01-12T05:17:43.241Z,102108.75
2019-01-12T05:20:15.438Z,102098.93
2019-01-12T05:22:44.668Z,102093.59
2019-01-12T05:25:13.882Z,102084.27
2019-01-12T05:27:43.057Z,102081.13
2019-01-12T05:30:17.390Z,102070.44
2019-01-12T05:32:46.646Z,102073.91
2019-01-12T05:35:15.832Z,102069.42
2019-01-12T05:37:45.062Z,102061.02
2019-01-12T05:40:14.400Z,102063.23
2019-01-12T05:42:43.586Z,102062.39
2019-01-12T05:45:13.808Z,102063.23
2019-01-12T05:47:43.000Z,102062.73
2019-01-12T05:50:13.325Z,102062.23
2019-01-12T05:52:42.572Z,102061.78
2019-01-12T05:55:11.928Z,102055.98
2019-01-12T05:57:41.115Z,102051.06
2019-01-12T06:00:18.148Z,102063.50
2019-01-12T06:02:47.358Z,102050.27
2019-01-12T06:05:16.528Z,102044.91
2019-01-12T06:07:45.716Z,102044.03
2019-01-12T06:10:15.054Z,102033.39
2019-01-12T06:12:44.495Z,102040.10
2019-01-12T06:15:14.304Z,102039.23
2019-01-12T06:17:43.516Z,102030.34
2019-01-12T06:20:14.834Z,102031.21
2019-01-12T06:22:44.073Z,102029.39
2019-01-12T06:25:13.343Z,102031.54
2019-01-12T06:27:42.529Z,102002.52
2019-01-12T06:30:14.895Z,102022.67
2019-01-12T06:32:44.152Z,102016.05
2019-01-12T06:35:13.397Z,102027.56
2019-01-12T06:37:42.571Z,102018.69
2019-01-12T06:40:14.708Z,101997.33
2019-01-12T06:42:43.880Z,101989.81
2019-01-12T06:45:15.095Z,101985.75
2019-01-12T06:47:44.385Z,101975.05
2019-01-12T06:50:15.894Z,101987.91
2019-01-12T06:52:45.063Z,101992.81
2019-01-12T06:55:14.316Z,101979.47
2019-01-12T06:57:43.489Z,101974.98
2019-01-12T07:00:15.543Z,101962.56
2019-01-12T07:02:44.719Z,101961.64
2019-01-12T07:05:13.974Z,101954.53
2019-01-12T07:07:43.246Z,101954.97
2019-01-12T07:10:14.480Z,101946.48
2019-01-12T07:12:43.837Z,101953.98
2019-01-12T07:15:14.449Z,101953.61
2019-01-12T07:17:43.648Z,101958.48
2019-01-12T07:20:14.571Z,101961.55
2019-01-12T07:22:44.133Z,101950.45
2019-01-12T07:25:13.369Z,101940.27
2019-01-12T07:27:42.713Z,101945.12
2019-01-12T07:30:14.930Z,101938.83
2019-01-12T07:32:44.292Z,101936.59
2019-01-12T07:35:13.475Z,101940.16
2019-01-12T07:37:42.683Z,101944.59
2019-01-12T07:40:11.934Z,101943.69
2019-01-12T07:42:41.139Z,101954.28
2019-01-12T07:45:11.095Z,101946.83
2019-01-12T07:47:40.275Z,101937.43
2019-01-12T07:50:12.019Z,101931.63
2019-01-12T07:52:41.210Z,101924.13
2019-01-12T07:55:10.650Z,101919.10
2019-01-12T07:57:39.848Z,101919.10
2019-01-12T08:00:15.226Z,101920.88
2019-01-12T08:02:44.400Z,101910.75
2019-01-12T08:05:15.025Z,101924.00
2019-01-12T08:07:44.278Z,101927.97
2019-01-12T08:10:19.228Z,101922.12
2019-01-12T08:12:48.397Z,101908.89
2019-01-12T08:15:17.650Z,101923.80
2019-01-12T08:17:46.981Z,101910.95
2019-01-12T08:20:16.230Z,101902.45
2019-01-12T08:22:45.470Z,101901.11
2019-01-12T08:25:33.783Z,101889.08
2019-01-12T08:28:02.980Z,101890.38
2019-01-12T08:30:32.161Z,101885.97
2019-01-12T08:33:01.431Z,101872.63
2019-01-12T08:35:30.625Z,101870.80
2019-01-12T08:37:59.858Z,101856.65
2019-01-12T08:40:29.050Z,101845.02
2019-01-12T08:42:58.241Z,101844.95
2019-01-12T08:45:27.419Z,101841.31
2019-01-12T08:47:56.624Z,101839.98
2019-01-12T08:50:26.756Z,101839.45
2019-01-12T08:52:55.936Z,101832.28
2019-01-12T08:55:25.138Z,101831.68
2019-01-12T08:57:54.229Z,101831.68
2019-01-12T09:00:23.653Z,101829.95
2019-01-12T09:02:52.829Z,101829.95
2019-01-12T09:05:22.026Z,101829.08
2019-01-12T09:07:51.565Z,101824.58
2019-01-12T09:10:20.860Z,101824.58
2019-01-12T09:12:50.148Z,101816.16
2019-01-12T09:15:19.321Z,101820.14
2019-01-12T09:17:48.568Z,101811.73
2019-01-12T09:20:17.835Z,101811.05
2019-01-12T09:22:47.284Z,101806.95
2019-01-12T09:25:16.518Z,101806.95
2019-01-12T09:27:46.059Z,101799.53
2019-01-12T09:30:18.372Z,101798.76
2019-01-12T09:32:47.611Z,101795.69
2019-01-12T09:35:16.970Z,101795.59
2019-01-12T09:37:46.153Z,101786.11
2019-01-12T09:40:17.636Z,101782.91
2019-01-12T09:42:47.094Z,101772.73
2019-01-12T09:45:17.729Z,101776.73
2019-01-12T09:47:47.034Z,101772.34
2019-01-12T09:50:17.774Z,101771.47
2019-01-12T09:52:47.018Z,101763.44
2019-01-12T09:55:16.787Z,101768.23
2019-01-12T09:57:46.157Z,101756.61
2019-01-12T10:00:20.595Z,101759.83
2019-01-12T10:02:49.795Z,101745.13
2019-01-12T10:05:19.124Z,101759.24
2019-01-12T10:07:48.365Z,101753.00
2019-01-12T10:10:20.009Z,101758.27
2019-01-12T10:12:49.456Z,101751.44
2019-01-12T10:15:18.624Z,101752.77
2019-01-12T10:17:47.815Z,101743.34
2019-01-12T10:20:18.459Z,101755.84
2019-01-12T10:22:47.767Z,101751.44
2019-01-12T10:25:17.386Z,101747.73
2019-01-12T10:27:46.726Z,101736.47
2019-01-12T10:30:18.879Z,101737.50
2019-01-12T10:32:48.191Z,101732.92
2019-01-12T10:35:17.460Z,101727.19
2019-01-12T10:37:46.860Z,101721.22
2019-01-12T10:40:19.433Z,101706.58
2019-01-12T10:42:49.071Z,101690.20
2019-01-12T10:45:20.851Z,101689.73
2019-01-12T10:47:50.112Z,101703.33
2019-01-12T10:50:22.434Z,101690.38
2019-01-12T10:52:51.609Z,101693.98
2019-01-12T10:55:20.854Z,101690.75
2019-01-12T10:57:50.050Z,101686.74
2019-01-12T11:00:28.088Z,101671.19
2019-01-12T11:02:57.415Z,101665.46
2019-01-12T11:05:26.931Z,101665.46
2019-01-12T11:07:56.106Z,101669.50
2019-01-12T11:10:25.305Z,101650.28
2019-01-12T11:12:54.893Z,101648.94
2019-01-12T11:15:24.024Z,101652.91
2019-01-12T11:17:53.303Z,101652.00
2019-01-12T11:20:22.578Z,101639.48
2019-01-12T11:22:51.831Z,101639.48
2019-01-12T11:25:21.024Z,101628.70
2019-01-12T11:27:50.214Z,101632.63
2019-01-12T11:30:20.235Z,101625.77
2019-01-12T11:32:49.870Z,101625.77
2019-01-12T11:35:19.042Z,101622.55
2019-01-12T11:37:48.360Z,101609.03
2019-01-12T11:40:20.065Z,101609.03
2019-01-12T11:42:50.498Z,101611.19
2019-01-12T11:45:20.048Z,101603.18
2019-01-12T11:47:49.941Z,101600.00
2019-01-12T11:50:19.129Z,101591.13
2019-01-12T11:52:48.324Z,101601.81
2019-01-12T11:55:18.867Z,101580.30
2019-01-12T11:57:48.112Z,101583.44
2019-01-12T12:00:23.105Z,101578.88
2019-01-12T12:02:52.563Z,101573.39
2019-01-12T12:05:21.884Z,101573.39
2019-01-12T12:07:51.404Z,101556.46
2019-01-12T12:10:21.337Z,101575.94
2019-01-12T12:12:50.995Z,101544.52
2019-01-12T12:15:21.397Z,101554.77
2019-01-12T12:17:50.675Z,101554.77
2019-01-12T12:20:22.423Z,101556.75
2019-01-12T12:22:51.603Z,101545.98
2019-01-12T12:25:38.999Z,101545.98
2019-01-12T12:28:08.178Z,101532.72
2019-01-12T12:30:37.359Z,101539.44
2019-01-12T12:33:06.567Z,101537.03
2019-01-12T12:35:37.848Z,101537.03
2019-01-12T12:38:06.801Z,101532.59
2019-01-12T12:40:36.991Z,101516.52
2019-01-12T12:43:06.271Z,101521.34
2019-01-12T12:45:35.725Z,101525.79
2019-01-12T12:48:05.753Z,101525.79
2019-01-12T12:50:35.066Z,101518.98
2019-01-12T12:53:04.877Z,101515.88
2019-01-12T12:55:34.048Z,101521.56
2019-01-12T12:58:03.625Z,101504.33
2019-01-12T13:00:33.808Z,101503.77
2019-01-12T13:03:02.993Z,101493.47
2019-01-12T13:05:33.260Z,101481.06
2019-01-12T13:08:02.500Z,101481.53
2019-01-12T13:10:31.678Z,101460.91
2019-01-12T13:13:00.946Z,101460.91
2019-01-12T13:15:30.281Z,101453.62
2019-01-12T13:17:59.544Z,101447.16
2019-01-12T13:20:41.179Z,101445.77
2019-01-12T13:23:12.244Z,101439.70
2019-01-12T13:25:41.435Z,101426.77
2019-01-12T13:28:10.670Z,101434.62
2019-01-12T13:30:39.864Z,101431.03
2019-01-12T13:33:09.066Z,101431.03
2019-01-12T13:35:38.254Z,101425.12
2019-01-12T13:38:07.497Z,101425.12
2019-01-12T13:40:36.733Z,101427.72
2019-01-12T13:43:05.979Z,101411.86
2019-01-12T13:45:35.154Z,101403.76
2019-01-12T13:48:05.088Z,101383.89
2019-01-12T13:50:34.304Z,101400.86
2019-01-12T13:53:03.483Z,101400.86
2019-01-12T13:55:32.689Z,101402.92
2019-01-12T13:58:01.907Z,101402.92
2019-01-12T14:00:33.024Z,101408.22
2019-01-12T14:03:02.972Z,101407.94
2019-01-12T14:05:32.294Z,101407.94
2019-01-12T14:08:01.528Z,101414.56
2019-01-12T14:10:30.705Z,101400.77
2019-01-12T14:12:59.969Z,101402.10
2019-01-12T14:15:29.326Z,101402.45
2019-01-12T14:17:58.640Z,101404.26
2019-01-12T14:20:33.078Z,101404.65
2019-01-12T14:23:02.384Z,101397.11
2019-01-12T14:25:31.581Z,101397.11
2019-01-12T14:28:00.882Z,101407.59
2019-01-12T14:30:30.154Z,101412.32
2019-01-12T14:32:59.343Z,101413.14
2019-01-12T14:35:28.533Z,101410.47
2019-01-12T14:37:57.722Z,101420.02
2019-01-12T14:40:27.923Z,101405.55
2019-01-12T14:42:57.183Z,101426.16
2019-01-12T14:45:28.306Z,101418.16
2019-01-12T14:47:57.518Z,101423.83
2019-01-12T14:50:26.705Z,101435.75
2019-01-12T14:52:55.874Z,101427.73
2019-01-12T14:55:25.874Z,101427.73
2019-01-12T14:58:01.665Z,101420.63
2019-01-12T15:00:27.871Z,101407.89
2019-01-12T15:02:57.271Z,101420.38
2019-01-12T15:05:28.517Z,101415.29
2019-01-12T15:07:57.646Z,101415.29
2019-01-12T15:10:26.848Z,101426.07
2019-01-12T15:12:56.067Z,101424.95
2019-01-12T15:15:25.139Z,101425.52
2019-01-12T15:17:54.446Z,101425.27
2019-01-12T15:20:25.567Z,101425.27
2019-01-12T15:22:56.786Z,101427.38
2019-01-12T15:25:26.051Z,101432.06
2019-01-12T15:27:55.226Z,101432.06
2019-01-12T15:30:26.448Z,101435.69
2019-01-12T15:32:56.970Z,101435.69
2019-01-12T15:35:29.681Z,101445.77
2019-01-12T15:37:58.853Z,101440.08
2019-01-12T15:40:28.062Z,101433.48
2019-01-12T15:42:57.262Z,101429.27
2019-01-12T15:45:27.171Z,101429.27
2019-01-12T15:47:56.461Z,101416.44
2019-01-12T15:50:26.998Z,101416.44
2019-01-12T15:52:56.298Z,101401.84
2019-01-12T15:55:25.619Z,101395.16
2019-01-12T15:57:54.779Z,101398.34
2019-01-12T16:00:26.122Z,101398.34
2019-01-12T16:02:55.590Z,101400.50
2019-01-12T16:05:24.753Z,101397.27
2019-01-12T16:07:53.938Z,101385.39
2019-01-12T16:10:23.147Z,101390.44
2019-01-12T16:12:52.329Z,101394.44
2019-01-12T16:15:23.601Z,101397.32
2019-01-12T16:17:52.860Z,101396.80
2019-01-12T16:20:27.885Z,101389.17
2019-01-12T16:22:57.114Z,101389.17
2019-01-12T16:25:26.400Z,101393.62
2019-01-12T16:27:55.525Z,101399.48
2019-01-12T16:30:24.694Z,101394.09
2019-01-12T16:32:53.976Z,101396.28
2019-01-12T16:35:23.165Z,101402.96
2019-01-12T16:37:52.321Z,101399.17
2019-01-12T16:40:28.081Z,101397.41
2019-01-12T16:42:57.268Z,101399.13
2019-01-12T16:45:26.538Z,101399.13
2019-01-12T16:47:56.660Z,101404.42
2019-01-12T16:50:25.855Z,101396.50
2019-01-12T16:52:55.061Z,101387.25
2019-01-12T16:55:24.312Z,101383.97
2019-01-12T16:57:55.559Z,101376.56
2019-01-12T17:00:26.882Z,101377.09
2019-01-12T17:02:56.053Z,101377.90
2019-01-12T17:05:25.217Z,101370.36
2019-01-12T17:07:54.415Z,101368.20
2019-01-12T17:10:23.673Z,101356.50
2019-01-12T17:12:52.922Z,101361.45
2019-01-12T17:15:23.055Z,101354.39
2019-01-12T17:17:52.238Z,101354.39
2019-01-12T17:20:23.578Z,101358.44
2019-01-12T17:22:58.842Z,101344.75
2019-01-12T17:25:28.041Z,101344.75
2019-01-12T17:27:57.233Z,101346.47
2019-01-12T17:30:28.393Z,101351.42
2019-01-12T17:32:57.974Z,101350.09
2019-01-12T17:35:27.125Z,101353.15
2019-01-12T17:37:56.428Z,101359.17
2019-01-12T17:40:25.708Z,101348.84
2019-01-12T17:42:54.971Z,101352.97
2019-01-12T17:45:24.888Z,101356.03
2019-01-12T17:47:54.098Z,101354.56
2019-01-12T17:50:24.671Z,101355.00
2019-01-12T17:52:54.108Z,101355.00
2019-01-12T17:55:24.794Z,101349.09
2019-01-12T17:57:53.933Z,101351.33
2019-01-12T18:00:26.635Z,101354.39
2019-01-12T18:02:55.790Z,101350.68
2019-01-12T18:05:25.004Z,101350.68
2019-01-12T18:07:54.181Z,101354.30
2019-01-12T18:10:23.399Z,101349.42
2019-01-12T18:12:52.579Z,101353.77
2019-01-12T18:15:21.756Z,101363.64
2019-01-12T18:17:50.956Z,101354.38
2019-01-12T18:20:20.173Z,101356.27
2019-01-12T18:22:49.366Z,101370.52
2019-01-12T18:25:18.575Z,101370.52
2019-01-12T18:27:47.767Z,101361.56
2019-01-12T18:30:22.063Z,101354.80
2019-01-12T18:32:51.263Z,101350.36
2019-01-12T18:35:20.447Z,101350.36
2019-01-12T18:37:49.704Z,101364.44
2019-01-12T18:40:20.510Z,101364.44
2019-01-12T18:42:49.739Z,101374.56
2019-01-12T18:45:20.633Z,101360.05
2019-01-12T18:47:49.834Z,101360.05
2019-01-12T18:50:21.694Z,101356.65
2019-01-12T18:52:51.216Z,101356.65
2019-01-12T18:55:22.020Z,101353.89
2019-01-12T18:57:51.424Z,101347.55
2019-01-12T19:00:23.215Z,101347.55
2019-01-12T19:02:52.542Z,101351.48
2019-01-12T19:05:21.868Z,101351.48
2019-01-12T19:07:51.424Z,101358.39
2019-01-12T19:10:20.821Z,101357.97
2019-01-12T19:12:50.068Z,101355.72
2019-01-12T19:15:27.751Z,101342.88
2019-01-12T19:17:57.010Z,101359.40
2019-01-12T19:20:26.337Z,101359.40
2019-01-12T19:22:55.532Z,101347.80
2019-01-12T19:25:24.722Z,101349.13
2019-01-12T19:27:53.972Z,101351.29
2019-01-12T19:30:23.786Z,101346.98
2019-01-12T19:32:52.976Z,101346.98
2019-01-12T19:35:24.157Z,101343.45
2019-01-12T19:37:53.443Z,101343.45
2019-01-12T19:40:25.710Z,101343.80
2019-01-12T19:42:54.891Z,101337.22
2019-01-12T19:45:24.111Z,101337.22
2019-01-12T19:47:53.308Z,101329.77
2019-01-12T19:50:24.545Z,101330.73
2019-01-12T19:52:53.805Z,101331.25
2019-01-12T19:55:23.060Z,101331.25
2019-01-12T19:57:52.266Z,101317.42
2019-01-12T20:00:27.233Z,101322.77
2019-01-12T20:02:56.402Z,101322.85
2019-01-12T20:05:25.639Z,101323.34
2019-01-12T20:07:54.836Z,101314.36
2019-01-12T20:10:24.177Z,101329.00
2019-01-12T20:12:53.473Z,101315.97
2019-01-12T20:15:24.183Z,101315.97
2019-01-12T20:17:53.362Z,101319.03
2019-01-12T20:20:22.753Z,101319.03
2019-01-12T20:22:51.979Z,101314.94
2019-01-12T20:25:26.492Z,101314.41
2019-01-12T20:27:55.755Z,101301.28
2019-01-12T20:30:39.943Z,101304.91
2019-01-12T20:33:15.220Z,101313.42
2019-01-12T20:36:17.596Z,101300.53
2019-01-12T20:38:52.546Z,101307.50
2019-01-12T20:41:30.347Z,101297.34
2019-01-12T20:44:11.543Z,101297.34
2019-01-12T20:46:49.112Z,101297.96
2019-01-12T20:49:27.445Z,101297.96
2019-01-12T20:52:07.680Z,101297.86
2019-01-12T20:54:45.722Z,101294.90
2019-01-12T20:57:23.619Z,101294.90
2019-01-12T20:59:58.480Z,101294.09
2019-01-12T21:02:42.272Z,101294.09
2019-01-12T21:05:22.335Z,101290.98
2019-01-12T21:07:54.581Z,101285.65
2019-01-12T21:10:32.161Z,101290.98
2019-01-12T21:13:37.700Z,101290.89
2019-01-12T21:16:12.791Z,101297.14
2019-01-12T21:18:41.985Z,101293.71
2019-01-12T21:21:11.197Z,101293.71
2019-01-12T21:23:41.441Z,101288.32
2019-01-12T21:26:10.737Z,101290.80
2019-01-12T21:28:39.917Z,101288.13
2019-01-12T21:31:09.337Z,101278.77
2019-01-12T21:33:38.578Z,101270.34
2019-01-12T21:36:07.765Z,101282.98
2019-01-12T21:38:36.977Z,101282.98
2019-01-12T21:41:06.331Z,101286.55
2019-01-12T21:43:35.496Z,101270.00
2019-01-12T21:46:05.257Z,101285.03
2019-01-12T21:48:34.457Z,101279.45
2019-01-12T21:51:03.703Z,101279.34
2019-01-12T21:53:32.901Z,101284.69
2019-01-12T21:56:02.089Z,101286.89
2019-01-12T21:58:31.277Z,101286.89
2019-01-12T22:01:00.498Z,101271.19
2019-01-12T22:03:30.606Z,101271.19
2019-01-12T22:05:59.953Z,101268.91
2019-01-12T22:08:29.157Z,101268.91
2019-01-12T22:10:58.339Z,101270.95
2019-01-12T22:13:27.520Z,101270.42
2019-01-12T22:15:56.730Z,101281.20
2019-01-12T22:18:25.929Z,101281.20
2019-01-12T22:20:55.112Z,101269.56
2019-01-12T22:23:24.295Z,101265.66
2019-01-12T22:25:53.504Z,101265.70
2019-01-12T22:28:22.689Z,101267.52
2019-01-12T22:30:51.871Z,101268.89
2019-01-12T22:33:21.101Z,101257.45
2019-01-12T22:35:50.296Z,101252.62
2019-01-12T22:38:19.489Z,101255.34
2019-01-12T22:40:48.688Z,101242.94
2019-01-12T22:43:17.879Z,101242.94
2019-01-12T22:45:48.075Z,101244.62
2019-01-12T22:48:17.265Z,101239.38
2019-01-12T22:50:46.445Z,101239.75
2019-01-12T22:53:15.620Z,101222.55
2019-01-12T22:55:44.822Z,101222.55
2019-01-12T22:58:14.914Z,101214.53
2019-01-12T23:00:50.951Z,101212.44
2019-01-12T23:03:20.196Z,101211.28
2019-01-12T23:05:49.383Z,101210.14
2019-01-12T23:08:18.593Z,101205.56
2019-01-12T23:10:47.838Z,101195.41
2019-01-12T23:13:22.865Z,101204.18
2019-01-12T23:15:52.072Z,101202.84
2019-01-12T23:18:21.290Z,101202.84
2019-01-12T23:20:50.545Z,101193.98
2019-01-12T23:23:19.788Z,101195.31
2019-01-12T23:25:48.998Z,101205.00
2019-01-12T23:28:18.166Z,101204.13
2019-01-12T23:30:47.473Z,101194.08
2019-01-12T23:33:16.747Z,101203.27
2019-01-12T23:35:46.006Z,101192.22
2019-01-12T23:38:15.215Z,101194.27
2019-01-12T23:40:45.339Z,101194.27
2019-01-12T23:43:14.666Z,101198.33
2019-01-12T23:45:43.853Z,101198.33
2019-01-12T23:48:13.063Z,101196.47
2019-01-12T23:50:42.267Z,101188.93
2019-01-12T23:53:12.462Z,101188.36
2019-01-12T23:55:41.674Z,101183.20
2019-01-12T23:58:10.857Z,101183.20
